KLAF

Purdue University Airport

Lafayette, Indiana, USA
METAR KLAF 181954Z 24011G18KT 10SM BKN026 OVC032 09/05 A2995 RMK AO2 SLP143 T00890050
Observed Flight Rules
Dec-18 @ 19:54 UTC (40 minutes ago) Marginal Visual Flight Rules
Wind Visibility Clouds
240° at 11 knots
 Gusting to 18 knots
10 miles
  • Broken at 2,600' AGL
  • Overcast at 3,200' AGL
Temperatures Readings
Current 9°C / 48°F
Dewpoint 5°C / 41°F
Humidity 76%
Altimeter 29.95" Hg
Pressure 1014.3 hPa
Elevation 182
METAR KLAF 181954Z 24011G18KT 10SM BKN026 OVC032 09/05 A2995 RMK AO2 SLP143 T00890050
Observed Flight Rules
Dec-18 @ 19:54 UTC
(40 minutes ago)
MVFR
Wind Visibility
240° at 11 knots
 Gusting to 18 knots
10 miles
Clouds
  • Broken at 2,600' AGL
  • Overcast at 3,200' AGL
Temperature Dewpoint
9°C / 48°F 5°C / 41°F
Humidity Altimeter Pressure
76% 29.95" Hg 1014.3 hPa